createdAt,value
2024-01-24T00:00:47.240Z,3.97
2024-01-24T00:03:33.455Z,4.15
2024-01-24T00:06:19.602Z,3.80
2024-01-24T00:09:05.989Z,3.83
2024-01-24T00:11:59.105Z,3.70
2024-01-24T00:14:45.302Z,3.55
2024-01-24T00:17:31.504Z,3.30
2024-01-24T00:20:17.624Z,3.13
2024-01-24T00:23:03.533Z,4.22
2024-01-24T00:25:50.764Z,3.90
2024-01-24T00:28:36.849Z,4.50
2024-01-24T00:31:22.720Z,4.43
2024-01-24T00:34:09.457Z,3.70
2024-01-24T00:36:56.379Z,4.28
2024-01-24T00:39:42.920Z,4.72
2024-01-24T00:42:29.172Z,3.72
2024-01-24T00:45:15.244Z,4.20
2024-01-24T00:48:11.977Z,5.15
2024-01-24T00:50:58.138Z,6.15
2024-01-24T00:53:45.491Z,4.00
2024-01-24T00:56:31.305Z,6.07
2024-01-24T00:59:19.249Z,4.95
2024-01-24T01:02:05.126Z,4.85
2024-01-24T01:04:51.023Z,4.65
2024-01-24T01:07:36.932Z,3.30
2024-01-24T01:10:23.156Z,3.70
2024-01-24T01:13:09.000Z,3.72
2024-01-24T01:15:57.008Z,3.78
2024-01-24T01:18:44.542Z,3.28
2024-01-24T01:21:30.678Z,3.05
2024-01-24T01:24:19.136Z,3.15
2024-01-24T01:27:05.116Z,3.13
2024-01-24T01:29:52.944Z,3.00
2024-01-24T01:32:40.248Z,3.00
2024-01-24T01:35:27.891Z,3.60
2024-01-24T01:38:17.101Z,2.80
2024-01-24T01:41:05.573Z,3.45
2024-01-24T01:43:51.786Z,3.50
2024-01-24T01:46:40.893Z,3.40
2024-01-24T01:49:26.910Z,3.08
2024-01-24T01:52:46.641Z,4.00
2024-01-24T01:55:32.965Z,3.90
2024-01-24T01:58:25.953Z,4.30
2024-01-24T02:01:12.340Z,3.95
2024-01-24T02:04:04.700Z,3.67
2024-01-24T02:06:52.552Z,3.30
2024-01-24T02:09:38.731Z,2.83
2024-01-24T02:12:26.888Z,3.30
2024-01-24T02:15:13.040Z,3.38
2024-01-24T02:17:59.001Z,3.53
2024-01-24T02:20:45.656Z,3.50
2024-01-24T02:23:31.747Z,3.03
2024-01-24T02:26:18.052Z,4.25
2024-01-24T02:29:04.217Z,3.58
2024-01-24T02:31:52.451Z,5.05
2024-01-24T02:34:38.576Z,3.15
2024-01-24T02:37:24.468Z,2.63
2024-01-24T02:40:17.228Z,2.78
2024-01-24T02:43:03.574Z,2.73
2024-01-24T02:45:50.367Z,2.60
2024-01-24T02:48:36.837Z,3.63
2024-01-24T02:51:27.063Z,3.10
2024-01-24T02:54:13.034Z,3.83
2024-01-24T02:56:59.974Z,21.38
2024-01-24T02:59:45.864Z,35.53
2024-01-24T03:02:32.539Z,34.28
2024-01-24T03:05:18.722Z,35.00
2024-01-24T03:08:06.354Z,29.80
2024-01-24T03:10:52.106Z,19.25
2024-01-24T03:13:37.989Z,27.90
2024-01-24T03:16:24.185Z,24.80
2024-01-24T03:19:10.460Z,30.35
2024-01-24T03:21:56.466Z,15.88
2024-01-24T03:24:42.785Z,7.38
2024-01-24T03:27:28.633Z,5.63
2024-01-24T03:30:14.993Z,4.78
2024-01-24T03:33:02.216Z,3.88
2024-01-24T03:35:48.834Z,3.47
2024-01-24T03:38:35.581Z,3.22
2024-01-24T03:41:23.759Z,13.38
2024-01-24T03:44:10.161Z,16.33
2024-01-24T03:46:56.463Z,18.55
2024-01-24T03:49:42.601Z,14.95
2024-01-24T03:52:28.635Z,11.38
2024-01-24T03:55:14.466Z,10.07
2024-01-24T03:58:00.530Z,11.35
2024-01-24T04:00:46.678Z,6.18
2024-01-24T04:03:33.824Z,4.88
2024-01-24T04:06:19.761Z,8.32
2024-01-24T04:09:06.659Z,9.43
2024-01-24T04:11:52.310Z,15.98
2024-01-24T04:14:38.261Z,13.73
2024-01-24T04:17:24.401Z,12.75
2024-01-24T04:20:10.794Z,5.18
2024-01-24T04:22:56.636Z,3.78
2024-01-24T04:25:42.672Z,5.07
2024-01-24T04:28:28.885Z,8.00
2024-01-24T04:31:15.290Z,14.02
2024-01-24T04:34:01.625Z,13.95
2024-01-24T04:36:47.833Z,12.00
2024-01-24T04:39:33.902Z,13.52
2024-01-24T04:42:20.490Z,23.23
2024-01-24T04:45:06.724Z,26.42
2024-01-24T04:47:52.989Z,40.05
2024-01-24T04:50:39.412Z,34.78
2024-01-24T04:53:25.837Z,30.63
2024-01-24T04:56:11.998Z,18.05
2024-01-24T04:58:58.179Z,13.82
2024-01-24T05:01:44.664Z,11.93
2024-01-24T05:04:30.498Z,12.18
2024-01-24T05:07:16.693Z,11.80
2024-01-24T05:10:04.733Z,6.70
2024-01-24T05:12:50.628Z,8.02
2024-01-24T05:15:36.625Z,18.98
2024-01-24T05:18:23.886Z,16.15
2024-01-24T05:21:09.783Z,26.35
2024-01-24T05:23:56.811Z,25.23
2024-01-24T05:26:44.880Z,13.55
2024-01-24T05:29:33.262Z,15.00
2024-01-24T05:32:19.347Z,16.95
2024-01-24T05:35:05.797Z,13.55
2024-01-24T05:37:51.937Z,13.45
2024-01-24T05:40:37.901Z,15.55
2024-01-24T05:43:24.013Z,13.23
2024-01-24T05:46:10.203Z,16.35
2024-01-24T05:48:57.086Z,15.10
2024-01-24T05:51:43.770Z,9.43
2024-01-24T05:54:32.205Z,10.52
2024-01-24T05:57:18.287Z,13.80
2024-01-24T06:00:04.616Z,26.23
2024-01-24T06:02:50.670Z,37.75
2024-01-24T06:05:36.584Z,39.67
2024-01-24T06:08:24.672Z,47.92
2024-01-24T06:11:11.308Z,47.60
2024-01-24T06:14:01.109Z,47.08
2024-01-24T06:16:47.071Z,41.33
2024-01-24T06:19:33.251Z,38.10
2024-01-24T06:22:19.281Z,32.15
2024-01-24T06:25:09.195Z,27.80
2024-01-24T06:28:01.555Z,25.38
2024-01-24T06:30:48.626Z,17.95
2024-01-24T06:33:37.822Z,16.05
2024-01-24T06:36:24.173Z,13.38
2024-01-24T06:39:11.215Z,9.68
2024-01-24T06:41:57.456Z,9.15
2024-01-24T06:44:45.129Z,11.27
2024-01-24T06:47:31.637Z,9.98
2024-01-24T06:50:19.015Z,9.68
2024-01-24T06:53:07.146Z,9.27
2024-01-24T06:55:53.167Z,9.88
2024-01-24T06:58:39.310Z,8.30
2024-01-24T07:01:25.484Z,9.77
2024-01-24T07:04:11.965Z,10.70
2024-01-24T07:06:58.334Z,11.38
2024-01-24T07:09:44.402Z,11.50
2024-01-24T07:12:31.402Z,11.65
2024-01-24T07:15:17.848Z,13.38
2024-01-24T07:18:04.488Z,19.13
2024-01-24T07:20:50.711Z,20.92
2024-01-24T07:23:36.715Z,13.45
2024-01-24T07:26:22.738Z,10.02
2024-01-24T07:29:08.645Z,8.80
2024-01-24T07:31:55.694Z,11.82
2024-01-24T07:34:41.535Z,13.45
2024-01-24T07:37:32.896Z,17.55
2024-01-24T07:40:18.902Z,17.60
2024-01-24T07:43:05.244Z,17.40
2024-01-24T07:45:52.116Z,22.00
2024-01-24T07:48:38.152Z,20.80
2024-01-24T07:51:24.334Z,19.65
2024-01-24T07:54:10.624Z,19.08
2024-01-24T07:56:56.341Z,18.58
2024-01-24T07:59:42.473Z,16.05
2024-01-24T08:02:29.704Z,13.60
2024-01-24T08:05:16.783Z,11.48
2024-01-24T08:08:03.099Z,11.63
2024-01-24T08:10:49.556Z,13.77
2024-01-24T08:13:35.434Z,14.85
2024-01-24T08:16:24.234Z,12.68
2024-01-24T08:19:12.559Z,11.98
2024-01-24T08:21:59.455Z,12.82
2024-01-24T08:24:46.938Z,11.68
2024-01-24T08:27:33.078Z,31.15
2024-01-24T08:30:21.661Z,29.45
2024-01-24T08:33:08.244Z,15.70
2024-01-24T08:35:54.532Z,10.80
2024-01-24T08:38:46.457Z,8.23
2024-01-24T08:41:33.089Z,6.95
2024-01-24T08:44:19.611Z,6.35
2024-01-24T08:47:07.307Z,5.95
2024-01-24T08:49:55.436Z,25.23
2024-01-24T08:52:41.407Z,22.83
2024-01-24T08:55:28.911Z,12.65
2024-01-24T08:58:15.416Z,8.02
2024-01-24T09:01:07.632Z,5.20
2024-01-24T09:03:54.730Z,5.40
2024-01-24T09:06:41.079Z,4.40
2024-01-24T09:09:28.174Z,5.50
2024-01-24T09:12:15.455Z,15.07
2024-01-24T09:15:01.711Z,30.40
2024-01-24T09:17:49.372Z,43.42
2024-01-24T09:20:38.854Z,18.70
2024-01-24T09:23:24.704Z,6.03
2024-01-24T09:26:18.256Z,4.50
2024-01-24T09:29:04.266Z,2.97
2024-01-24T09:31:50.320Z,3.30
2024-01-24T09:34:36.475Z,2.65
2024-01-24T09:37:22.755Z,2.72
2024-01-24T09:40:10.940Z,4.60
2024-01-24T09:43:02.053Z,2.05
2024-01-24T09:45:50.523Z,2.80
2024-01-24T09:48:36.830Z,2.63
2024-01-24T09:51:23.106Z,3.55
2024-01-24T09:54:09.725Z,4.20
2024-01-24T09:56:59.377Z,2.75
2024-01-24T09:59:45.561Z,1.88
2024-01-24T10:02:33.742Z,2.28
2024-01-24T10:05:21.822Z,2.90
2024-01-24T10:08:11.280Z,2.28
2024-01-24T10:10:57.301Z,2.53
2024-01-24T10:13:44.357Z,3.08
2024-01-24T10:16:30.305Z,2.40
2024-01-24T10:19:16.604Z,3.00
2024-01-24T10:22:07.213Z,2.80
2024-01-24T10:24:56.153Z,2.88
2024-01-24T10:27:43.068Z,1.83
2024-01-24T10:30:33.543Z,2.05
2024-01-24T10:33:20.166Z,1.60
2024-01-24T10:36:14.545Z,1.50
2024-01-24T10:39:11.016Z,2.78
2024-01-24T10:41:59.428Z,1.92
2024-01-24T10:44:46.076Z,2.17
2024-01-24T10:47:32.615Z,1.95
2024-01-24T10:50:19.290Z,2.70
2024-01-24T10:53:05.319Z,6.35
2024-01-24T10:55:52.490Z,2.70
2024-01-24T10:58:41.824Z,2.28
2024-01-24T11:01:28.230Z,1.83
2024-01-24T11:04:20.594Z,2.30
2024-01-24T11:07:11.532Z,2.33
2024-01-24T11:10:22.603Z,3.17
2024-01-24T11:13:14.895Z,2.30
2024-01-24T11:23:48.323Z,2.92
2024-01-24T11:26:34.527Z,2.22
2024-01-24T11:29:20.931Z,2.55
2024-01-24T11:32:11.581Z,1.88
2024-01-24T11:35:28.817Z,2.38
2024-01-24T11:38:25.586Z,4.18
2024-01-24T11:41:27.504Z,3.97
2024-01-24T11:49:11.109Z,1.98
2024-01-24T12:06:51.951Z,3.80
2024-01-24T12:09:37.785Z,1.30
2024-01-24T12:12:24.795Z,2.30
2024-01-24T12:15:47.066Z,2.55
2024-01-24T12:18:33.699Z,1.95
2024-01-24T12:21:20.328Z,3.67
2024-01-24T12:24:07.083Z,10.60
2024-01-24T12:26:57.783Z,5.80
2024-01-24T12:29:45.545Z,5.00
2024-01-24T12:33:17.628Z,3.70
2024-01-24T12:36:07.724Z,3.90
2024-01-24T12:38:56.591Z,3.80
2024-01-24T12:42:14.446Z,3.70
2024-01-24T12:45:00.615Z,2.95
2024-01-24T12:47:46.609Z,3.63
2024-01-24T12:50:34.161Z,4.28
2024-01-24T12:53:21.690Z,3.40
2024-01-24T12:56:10.881Z,3.30
2024-01-24T12:58:58.206Z,3.47
2024-01-24T13:01:44.350Z,5.72
2024-01-24T13:04:30.463Z,2.10
2024-01-24T13:07:16.671Z,2.10
2024-01-24T13:10:07.041Z,3.55
2024-01-24T13:12:54.097Z,4.53
2024-01-24T13:15:41.189Z,14.20
2024-01-24T13:43:22.630Z,4.53
2024-01-24T13:46:08.792Z,8.57
2024-01-24T13:48:54.989Z,8.57
2024-01-24T13:51:43.391Z,9.93
2024-01-24T13:54:31.031Z,12.00
2024-01-24T13:57:17.191Z,11.57
2024-01-24T14:00:04.200Z,10.05
2024-01-24T14:02:51.968Z,7.32
2024-01-24T14:05:40.122Z,8.75
2024-01-24T14:08:27.091Z,6.85
2024-01-24T14:11:15.323Z,5.63
2024-01-24T14:14:01.725Z,6.50
2024-01-24T14:16:49.039Z,7.15
2024-01-24T14:19:35.041Z,5.43
2024-01-24T14:22:21.472Z,6.30
2024-01-24T14:25:09.242Z,6.38
2024-01-24T14:27:55.681Z,7.28
2024-01-24T14:30:41.468Z,11.02
2024-01-24T14:33:34.316Z,14.43
2024-01-24T14:36:32.934Z,13.05
2024-01-24T14:39:19.275Z,15.25
2024-01-24T14:42:08.336Z,16.27
2024-01-24T14:44:55.433Z,19.15
2024-01-24T14:47:41.590Z,12.48
2024-01-24T14:50:29.455Z,8.40
2024-01-24T14:53:17.590Z,10.40
2024-01-24T14:56:03.579Z,9.35
2024-01-24T14:58:49.855Z,10.60
2024-01-24T15:01:36.259Z,12.65
2024-01-24T15:04:22.840Z,14.48
2024-01-24T15:07:09.257Z,18.27
2024-01-24T15:09:55.836Z,17.75
2024-01-24T15:12:41.953Z,18.52
2024-01-24T15:15:28.280Z,20.73
2024-01-24T15:18:14.554Z,17.80
2024-01-24T15:21:07.981Z,14.90
2024-01-24T15:23:58.866Z,14.02
2024-01-24T15:26:46.271Z,14.48
2024-01-24T15:29:32.548Z,15.13
2024-01-24T15:32:18.888Z,11.95
2024-01-24T15:35:05.954Z,12.48
2024-01-24T15:37:53.528Z,18.23
2024-01-24T15:40:40.125Z,20.02
2024-01-24T15:43:27.306Z,21.25
2024-01-24T15:46:13.802Z,22.20
2024-01-24T15:49:00.230Z,22.75
2024-01-24T15:51:46.651Z,25.25
2024-01-24T15:54:32.958Z,27.85
2024-01-24T15:57:19.065Z,27.60
2024-01-24T16:00:11.191Z,24.25
2024-01-24T16:02:57.602Z,27.38
2024-01-24T16:05:47.378Z,28.50
2024-01-24T16:08:34.805Z,23.48
2024-01-24T16:11:20.943Z,26.20
2024-01-24T16:14:06.805Z,28.00
2024-01-24T16:16:57.223Z,29.95
2024-01-24T16:19:43.062Z,29.77
2024-01-24T16:22:36.178Z,34.33
2024-01-24T16:25:25.549Z,36.55
2024-01-24T16:28:16.144Z,32.40
2024-01-24T16:31:02.606Z,33.83
2024-01-24T16:33:49.952Z,34.70
2024-01-24T16:36:36.846Z,35.55
2024-01-24T16:39:23.039Z,37.38
2024-01-24T16:42:09.523Z,38.30
2024-01-24T16:44:55.975Z,42.40
2024-01-24T16:47:42.420Z,39.67
2024-01-24T16:50:28.289Z,46.15
2024-01-24T16:53:14.847Z,39.90
2024-01-24T16:56:00.993Z,41.22
2024-01-24T16:58:47.174Z,35.53
2024-01-24T17:01:33.359Z,30.92
2024-01-24T17:04:19.901Z,27.77
2024-01-24T17:07:06.036Z,20.02
2024-01-24T17:09:52.775Z,16.27
2024-01-24T17:12:39.766Z,16.73
2024-01-24T17:15:25.748Z,15.57
2024-01-24T17:18:12.960Z,20.52
2024-01-24T17:20:59.278Z,15.90
2024-01-24T17:23:46.765Z,15.70
2024-01-24T17:26:32.882Z,17.70
2024-01-24T17:29:19.621Z,15.98
2024-01-24T17:32:05.972Z,16.63
2024-01-24T17:34:51.998Z,18.55
2024-01-24T17:37:38.231Z,150.70
2024-01-24T17:40:24.678Z,39.22
2024-01-24T17:43:10.875Z,28.25
2024-01-24T17:45:57.480Z,22.30
2024-01-24T17:48:44.581Z,29.10
2024-01-24T17:51:34.270Z,27.42
2024-01-24T17:54:20.355Z,23.77
2024-01-24T17:57:06.387Z,26.65
2024-01-24T17:59:52.440Z,25.15
2024-01-24T18:02:38.711Z,24.92
2024-01-24T18:05:25.072Z,20.67
2024-01-24T18:08:11.376Z,18.52
2024-01-24T18:10:58.582Z,14.95
2024-01-24T18:13:45.966Z,17.88
2024-01-24T18:16:37.661Z,18.77
2024-01-24T18:19:23.700Z,20.00
2024-01-24T18:22:12.230Z,17.05
2024-01-24T18:25:22.548Z,18.55
2024-01-24T18:28:11.278Z,89.60
2024-01-24T18:30:57.124Z,102.05
2024-01-24T18:33:43.516Z,29.00
2024-01-24T18:36:29.567Z,25.77
2024-01-24T18:39:15.556Z,21.63
2024-01-24T18:42:02.101Z,24.08
2024-01-24T18:44:48.493Z,23.85
2024-01-24T18:47:34.739Z,26.02
2024-01-24T18:50:21.375Z,27.80
2024-01-24T18:53:09.038Z,124.00
2024-01-24T18:55:55.750Z,62.33
2024-01-24T18:58:42.300Z,50.53
2024-01-24T19:01:28.829Z,24.33
2024-01-24T19:04:16.732Z,21.45
2024-01-24T19:07:03.367Z,22.23
2024-01-24T19:09:50.003Z,22.60
2024-01-24T19:12:40.409Z,20.98
2024-01-24T19:15:28.380Z,20.55
2024-01-24T19:18:17.559Z,22.48
2024-01-24T19:21:06.165Z,21.60
2024-01-24T19:23:53.422Z,23.17
2024-01-24T19:26:43.995Z,23.05
2024-01-24T19:29:29.970Z,24.83
2024-01-24T19:32:16.100Z,21.70
2024-01-24T19:35:04.917Z,19.83
2024-01-24T19:37:51.061Z,18.73
2024-01-24T19:40:38.871Z,18.10
2024-01-24T19:43:25.029Z,22.50
2024-01-24T19:46:12.296Z,19.13
2024-01-24T19:48:58.690Z,18.42
2024-01-24T19:51:44.775Z,21.02
2024-01-24T19:54:30.821Z,26.48
2024-01-24T19:57:16.993Z,143.00
2024-01-24T20:00:03.090Z,33.00
2024-01-24T20:02:51.129Z,32.58
2024-01-24T20:05:38.225Z,34.42
2024-01-24T20:08:24.595Z,36.97
2024-01-24T20:11:10.838Z,37.50
2024-01-24T20:13:56.662Z,34.50
2024-01-24T20:16:44.281Z,24.38
2024-01-24T20:19:30.506Z,22.40
2024-01-24T20:22:17.082Z,19.65
2024-01-24T20:25:03.254Z,20.90
2024-01-24T20:27:49.889Z,20.58
2024-01-24T20:30:46.135Z,20.25
2024-01-24T20:33:41.120Z,22.45
2024-01-24T20:36:27.623Z,23.60
2024-01-24T20:39:21.587Z,31.15
2024-01-24T20:42:11.216Z,35.42
2024-01-24T20:44:59.934Z,40.13
2024-01-24T20:47:46.196Z,39.80
2024-01-24T20:50:34.373Z,44.80
2024-01-24T20:53:20.486Z,45.00
2024-01-24T20:56:06.765Z,37.22
2024-01-24T20:58:53.780Z,34.75
2024-01-24T21:01:40.244Z,36.38
2024-01-24T21:04:26.585Z,32.15
2024-01-24T21:07:13.216Z,23.58
2024-01-24T21:09:59.148Z,23.77
2024-01-24T21:12:45.404Z,21.92
2024-01-24T21:15:31.656Z,23.80
2024-01-24T21:18:17.815Z,25.20
2024-01-24T21:21:04.399Z,26.23
2024-01-24T21:23:51.591Z,24.98
2024-01-24T21:26:48.557Z,27.48
2024-01-24T21:29:34.521Z,28.25
2024-01-24T21:32:20.869Z,29.73
2024-01-24T21:35:07.963Z,27.65
2024-01-24T21:37:55.384Z,25.75
2024-01-24T21:40:41.550Z,25.98
2024-01-24T21:43:27.694Z,23.83
2024-01-24T21:46:13.946Z,23.25
2024-01-24T21:49:00.305Z,22.05
2024-01-24T21:51:47.457Z,23.25
2024-01-24T21:54:33.737Z,24.13
2024-01-24T21:57:20.072Z,21.92
2024-01-24T22:00:07.699Z,24.05
2024-01-24T22:02:53.838Z,28.35
2024-01-24T22:05:39.810Z,25.35
2024-01-24T22:08:25.953Z,24.08
2024-01-24T22:11:13.969Z,27.83
2024-01-24T22:14:01.297Z,30.25
2024-01-24T22:16:48.213Z,31.58
2024-01-24T22:19:36.124Z,35.40
2024-01-24T22:22:22.652Z,32.03
2024-01-24T22:25:11.333Z,24.98
2024-01-24T22:27:58.932Z,24.52
2024-01-24T22:30:50.074Z,22.13
2024-01-24T22:33:37.426Z,25.30
2024-01-24T22:36:29.018Z,21.45
2024-01-24T22:39:15.086Z,21.23
2024-01-24T22:42:01.329Z,18.98
2024-01-24T22:44:48.684Z,21.58
2024-01-24T22:47:34.923Z,22.30
2024-01-24T22:50:21.804Z,18.27
2024-01-24T22:53:07.878Z,18.33
2024-01-24T22:56:14.103Z,18.35
2024-01-24T22:59:00.233Z,18.52
2024-01-24T23:01:46.664Z,18.17
2024-01-24T23:04:32.986Z,14.98
2024-01-24T23:07:19.094Z,17.23
2024-01-24T23:10:05.928Z,16.73
2024-01-24T23:12:54.723Z,15.23
2024-01-24T23:15:40.686Z,13.00
2024-01-24T23:18:28.077Z,13.05
2024-01-24T23:21:15.514Z,16.02
2024-01-24T23:24:07.185Z,14.48
2024-01-24T23:26:53.307Z,17.65
2024-01-24T23:29:39.499Z,15.63
2024-01-24T23:32:26.875Z,16.10
2024-01-24T23:35:13.049Z,19.67
2024-01-24T23:37:59.148Z,19.40
2024-01-24T23:40:45.422Z,19.02
2024-01-24T23:43:31.569Z,19.50
2024-01-24T23:46:18.253Z,19.58
2024-01-24T23:49:04.867Z,20.00
2024-01-24T23:51:52.596Z,22.42
2024-01-24T23:54:39.076Z,23.13
2024-01-24T23:57:26.182Z,22.88
